sensor_id;sensor_type;location;lat;lon;timestamp;P1;durP1;ratioP1;P2;durP2;ratioP2
40204;SDS011;26963;42.666;23.366;2023-03-19T00:01:59;27.50;;;16.02;;
40204;SDS011;26963;42.666;23.366;2023-03-19T00:04:25;26.95;;;15.75;;
40204;SDS011;26963;42.666;23.366;2023-03-19T00:06:51;26.25;;;15.13;;
40204;SDS011;26963;42.666;23.366;2023-03-19T00:09:17;20.42;;;15.40;;
40204;SDS011;26963;42.666;23.366;2023-03-19T00:11:44;22.52;;;15.82;;
40204;SDS011;26963;42.666;23.366;2023-03-19T00:14:10;22.73;;;15.77;;
40204;SDS011;26963;42.666;23.366;2023-03-19T00:16:36;23.17;;;16.27;;
40204;SDS011;26963;42.666;23.366;2023-03-19T00:19:01;26.25;;;16.23;;
40204;SDS011;26963;42.666;23.366;2023-03-19T00:21:28;24.48;;;16.55;;
40204;SDS011;26963;42.666;23.366;2023-03-19T00:23:54;30.05;;;18.90;;
40204;SDS011;26963;42.666;23.366;2023-03-19T00:26:25;29.02;;;18.33;;
40204;SDS011;26963;42.666;23.366;2023-03-19T00:28:52;33.67;;;17.67;;
40204;SDS011;26963;42.666;23.366;2023-03-19T00:31:18;30.80;;;18.60;;
40204;SDS011;26963;42.666;23.366;2023-03-19T00:33:44;29.25;;;17.70;;
40204;SDS011;26963;42.666;23.366;2023-03-19T00:36:10;28.35;;;16.63;;
40204;SDS011;26963;42.666;23.366;2023-03-19T00:38:36;32.03;;;16.98;;
40204;SDS011;26963;42.666;23.366;2023-03-19T00:41:02;31.38;;;16.38;;
40204;SDS011;26963;42.666;23.366;2023-03-19T00:43:30;29.70;;;16.65;;
40204;SDS011;26963;42.666;23.366;2023-03-19T00:45:56;31.90;;;17.20;;
40204;SDS011;26963;42.666;23.366;2023-03-19T00:48:22;24.50;;;15.90;;
40204;SDS011;26963;42.666;23.366;2023-03-19T00:50:47;28.15;;;16.17;;
40204;SDS011;26963;42.666;23.366;2023-03-19T00:53:13;25.30;;;16.15;;
40204;SDS011;26963;42.666;23.366;2023-03-19T00:55:39;27.25;;;16.90;;
40204;SDS011;26963;42.666;23.366;2023-03-19T00:58:04;29.38;;;17.38;;
40204;SDS011;26963;42.666;23.366;2023-03-19T01:00:31;30.90;;;16.25;;
40204;SDS011;26963;42.666;23.366;2023-03-19T01:02:58;33.75;;;18.15;;
40204;SDS011;26963;42.666;23.366;2023-03-19T01:05:24;31.98;;;16.83;;
40204;SDS011;26963;42.666;23.366;2023-03-19T01:07:49;25.58;;;15.20;;
40204;SDS011;26963;42.666;23.366;2023-03-19T01:10:19;27.50;;;15.63;;
40204;SDS011;26963;42.666;23.366;2023-03-19T01:12:46;20.88;;;14.32;;
40204;SDS011;26963;42.666;23.366;2023-03-19T01:15:12;22.98;;;13.43;;
40204;SDS011;26963;42.666;23.366;2023-03-19T01:17:38;21.75;;;13.55;;
40204;SDS011;26963;42.666;23.366;2023-03-19T01:20:04;20.90;;;13.48;;
40204;SDS011;26963;42.666;23.366;2023-03-19T01:22:37;24.63;;;13.93;;
40204;SDS011;26963;42.666;23.366;2023-03-19T01:25:04;24.52;;;15.20;;
40204;SDS011;26963;42.666;23.366;2023-03-19T01:27:31;25.83;;;16.00;;
40204;SDS011;26963;42.666;23.366;2023-03-19T01:29:57;26.13;;;16.43;;
40204;SDS011;26963;42.666;23.366;2023-03-19T01:32:22;23.88;;;14.80;;
40204;SDS011;26963;42.666;23.366;2023-03-19T01:34:48;25.33;;;15.10;;
40204;SDS011;26963;42.666;23.366;2023-03-19T01:37:13;21.40;;;14.35;;
40204;SDS011;26963;42.666;23.366;2023-03-19T01:39:39;27.55;;;16.48;;
40204;SDS011;26963;42.666;23.366;2023-03-19T01:42:05;24.63;;;14.63;;
40204;SDS011;26963;42.666;23.366;2023-03-19T01:44:32;23.77;;;15.37;;
40204;SDS011;26963;42.666;23.366;2023-03-19T01:47:00;26.20;;;14.70;;
40204;SDS011;26963;42.666;23.366;2023-03-19T01:49:30;24.43;;;14.23;;
40204;SDS011;26963;42.666;23.366;2023-03-19T01:51:56;25.40;;;13.93;;
40204;SDS011;26963;42.666;23.366;2023-03-19T01:54:24;23.17;;;14.37;;
40204;SDS011;26963;42.666;23.366;2023-03-19T01:56:53;27.50;;;15.00;;
40204;SDS011;26963;42.666;23.366;2023-03-19T01:59:25;22.70;;;14.93;;
40204;SDS011;26963;42.666;23.366;2023-03-19T02:01:59;27.15;;;15.30;;
40204;SDS011;26963;42.666;23.366;2023-03-19T02:04:30;28.37;;;14.97;;
40204;SDS011;26963;42.666;23.366;2023-03-19T02:06:57;23.27;;;14.13;;
40204;SDS011;26963;42.666;23.366;2023-03-19T02:09:25;26.77;;;15.27;;
40204;SDS011;26963;42.666;23.366;2023-03-19T02:11:52;26.07;;;15.27;;
40204;SDS011;26963;42.666;23.366;2023-03-19T02:14:18;35.47;;;15.23;;
40204;SDS011;26963;42.666;23.366;2023-03-19T02:16:44;29.30;;;15.60;;
40204;SDS011;26963;42.666;23.366;2023-03-19T02:19:11;27.40;;;16.30;;
40204;SDS011;26963;42.666;23.366;2023-03-19T02:21:41;29.15;;;15.05;;
40204;SDS011;26963;42.666;23.366;2023-03-19T02:24:20;28.55;;;16.33;;
40204;SDS011;26963;42.666;23.366;2023-03-19T02:26:50;31.00;;;16.77;;
40204;SDS011;26963;42.666;23.366;2023-03-19T02:29:16;33.50;;;16.20;;
40204;SDS011;26963;42.666;23.366;2023-03-19T02:31:41;30.67;;;16.60;;
40204;SDS011;26963;42.666;23.366;2023-03-19T02:36:58;32.63;;;19.73;;
40204;SDS011;26963;42.666;23.366;2023-03-19T02:42:12;37.50;;;21.23;;
40204;SDS011;26963;42.666;23.366;2023-03-19T02:44:40;33.17;;;19.70;;
40204;SDS011;26963;42.666;23.366;2023-03-19T02:47:05;28.00;;;16.75;;
40204;SDS011;26963;42.666;23.366;2023-03-19T02:49:31;26.83;;;16.50;;
40204;SDS011;26963;42.666;23.366;2023-03-19T02:51:57;28.93;;;16.57;;
40204;SDS011;26963;42.666;23.366;2023-03-19T02:54:22;27.70;;;16.25;;
40204;SDS011;26963;42.666;23.366;2023-03-19T02:56:48;28.00;;;15.20;;
40204;SDS011;26963;42.666;23.366;2023-03-19T02:59:14;27.93;;;16.03;;
40204;SDS011;26963;42.666;23.366;2023-03-19T03:01:40;35.20;;;16.73;;
40204;SDS011;26963;42.666;23.366;2023-03-19T03:04:05;32.10;;;15.87;;
40204;SDS011;26963;42.666;23.366;2023-03-19T03:06:31;28.33;;;16.27;;
40204;SDS011;26963;42.666;23.366;2023-03-19T03:08:57;28.73;;;16.80;;
40204;SDS011;26963;42.666;23.366;2023-03-19T03:11:22;30.13;;;16.80;;
40204;SDS011;26963;42.666;23.366;2023-03-19T03:13:48;30.93;;;16.53;;
40204;SDS011;26963;42.666;23.366;2023-03-19T03:16:13;25.63;;;15.50;;
40204;SDS011;26963;42.666;23.366;2023-03-19T03:18:39;30.57;;;15.57;;
40204;SDS011;26963;42.666;23.366;2023-03-19T03:21:06;29.50;;;15.90;;
40204;SDS011;26963;42.666;23.366;2023-03-19T03:23:32;30.33;;;17.27;;
40204;SDS011;26963;42.666;23.366;2023-03-19T03:26:16;25.80;;;15.43;;
40204;SDS011;26963;42.666;23.366;2023-03-19T03:28:42;26.07;;;14.53;;
40204;SDS011;26963;42.666;23.366;2023-03-19T03:31:07;27.67;;;14.97;;
40204;SDS011;26963;42.666;23.366;2023-03-19T03:33:33;28.87;;;16.03;;
40204;SDS011;26963;42.666;23.366;2023-03-19T03:36:00;23.43;;;13.67;;
40204;SDS011;26963;42.666;23.366;2023-03-19T03:38:26;24.23;;;13.90;;
40204;SDS011;26963;42.666;23.366;2023-03-19T03:40:52;24.40;;;14.13;;
40204;SDS011;26963;42.666;23.366;2023-03-19T03:43:18;24.77;;;15.23;;
40204;SDS011;26963;42.666;23.366;2023-03-19T03:45:45;26.05;;;14.85;;
40204;SDS011;26963;42.666;23.366;2023-03-19T03:48:12;25.27;;;14.97;;
40204;SDS011;26963;42.666;23.366;2023-03-19T03:50:37;25.97;;;14.13;;
40204;SDS011;26963;42.666;23.366;2023-03-19T03:53:04;28.40;;;18.03;;
40204;SDS011;26963;42.666;23.366;2023-03-19T03:55:30;29.03;;;16.40;;
40204;SDS011;26963;42.666;23.366;2023-03-19T03:57:56;32.43;;;17.90;;
40204;SDS011;26963;42.666;23.366;2023-03-19T04:00:22;27.87;;;15.67;;
40204;SDS011;26963;42.666;23.366;2023-03-19T04:02:48;30.40;;;17.83;;
40204;SDS011;26963;42.666;23.366;2023-03-19T04:05:14;27.83;;;17.97;;
40204;SDS011;26963;42.666;23.366;2023-03-19T04:07:40;35.77;;;18.20;;
40204;SDS011;26963;42.666;23.366;2023-03-19T04:10:07;29.93;;;17.40;;
40204;SDS011;26963;42.666;23.366;2023-03-19T04:12:35;27.37;;;17.77;;
40204;SDS011;26963;42.666;23.366;2023-03-19T04:15:02;30.88;;;17.20;;
40204;SDS011;26963;42.666;23.366;2023-03-19T04:17:28;28.90;;;17.60;;
40204;SDS011;26963;42.666;23.366;2023-03-19T04:19:54;28.10;;;18.23;;
40204;SDS011;26963;42.666;23.366;2023-03-19T04:22:20;36.87;;;20.30;;
40204;SDS011;26963;42.666;23.366;2023-03-19T04:24:46;32.53;;;19.33;;
40204;SDS011;26963;42.666;23.366;2023-03-19T04:27:11;29.70;;;20.37;;
40204;SDS011;26963;42.666;23.366;2023-03-19T04:29:37;29.37;;;18.83;;
40204;SDS011;26963;42.666;23.366;2023-03-19T04:32:03;27.37;;;18.03;;
40204;SDS011;26963;42.666;23.366;2023-03-19T04:34:28;30.43;;;19.73;;
40204;SDS011;26963;42.666;23.366;2023-03-19T04:36:54;30.13;;;19.90;;
40204;SDS011;26963;42.666;23.366;2023-03-19T04:39:20;22.33;;;14.70;;
40204;SDS011;26963;42.666;23.366;2023-03-19T04:41:46;23.53;;;11.80;;
40204;SDS011;26963;42.666;23.366;2023-03-19T04:44:11;15.87;;;10.10;;
40204;SDS011;26963;42.666;23.366;2023-03-19T04:46:37;17.93;;;11.10;;
40204;SDS011;26963;42.666;23.366;2023-03-19T04:49:03;21.53;;;13.27;;
40204;SDS011;26963;42.666;23.366;2023-03-19T04:51:28;21.43;;;14.37;;
40204;SDS011;26963;42.666;23.366;2023-03-19T04:53:54;21.93;;;14.50;;
40204;SDS011;26963;42.666;23.366;2023-03-19T04:56:19;19.33;;;13.23;;
40204;SDS011;26963;42.666;23.366;2023-03-19T04:58:45;21.73;;;13.30;;
40204;SDS011;26963;42.666;23.366;2023-03-19T05:01:11;19.87;;;13.80;;
40204;SDS011;26963;42.666;23.366;2023-03-19T05:03:36;23.00;;;12.70;;
40204;SDS011;26963;42.666;23.366;2023-03-19T05:06:02;17.63;;;11.60;;
40204;SDS011;26963;42.666;23.366;2023-03-19T05:08:28;21.97;;;12.57;;
40204;SDS011;26963;42.666;23.366;2023-03-19T05:10:53;16.13;;;10.30;;
40204;SDS011;26963;42.666;23.366;2023-03-19T05:13:19;13.33;;;8.83;;
40204;SDS011;26963;42.666;23.366;2023-03-19T05:15:45;11.67;;;7.10;;
40204;SDS011;26963;42.666;23.366;2023-03-19T05:18:11;12.93;;;7.23;;
40204;SDS011;26963;42.666;23.366;2023-03-19T05:20:37;10.77;;;6.57;;
40204;SDS011;26963;42.666;23.366;2023-03-19T05:23:03;11.43;;;7.83;;
40204;SDS011;26963;42.666;23.366;2023-03-19T05:25:30;14.10;;;7.83;;
40204;SDS011;26963;42.666;23.366;2023-03-19T05:27:59;11.77;;;6.80;;
40204;SDS011;26963;42.666;23.366;2023-03-19T05:30:25;10.37;;;6.90;;
40204;SDS011;26963;42.666;23.366;2023-03-19T05:32:51;11.13;;;7.32;;
40204;SDS011;26963;42.666;23.366;2023-03-19T05:35:17;11.23;;;7.17;;
40204;SDS011;26963;42.666;23.366;2023-03-19T05:37:43;11.07;;;7.73;;
40204;SDS011;26963;42.666;23.366;2023-03-19T05:40:09;12.07;;;8.27;;
40204;SDS011;26963;42.666;23.366;2023-03-19T05:42:36;13.80;;;8.87;;
40204;SDS011;26963;42.666;23.366;2023-03-19T05:45:02;15.27;;;8.20;;
40204;SDS011;26963;42.666;23.366;2023-03-19T05:47:29;18.33;;;11.37;;
40204;SDS011;26963;42.666;23.366;2023-03-19T05:49:55;18.50;;;11.83;;
40204;SDS011;26963;42.666;23.366;2023-03-19T05:52:21;19.10;;;11.73;;
40204;SDS011;26963;42.666;23.366;2023-03-19T05:54:46;18.37;;;12.13;;
40204;SDS011;26963;42.666;23.366;2023-03-19T05:57:14;18.70;;;11.40;;
40204;SDS011;26963;42.666;23.366;2023-03-19T05:59:40;15.27;;;11.07;;
40204;SDS011;26963;42.666;23.366;2023-03-19T06:02:06;15.97;;;10.33;;
40204;SDS011;26963;42.666;23.366;2023-03-19T06:04:31;17.63;;;10.20;;
40204;SDS011;26963;42.666;23.366;2023-03-19T06:06:57;17.87;;;11.17;;
40204;SDS011;26963;42.666;23.366;2023-03-19T06:09:23;20.47;;;12.00;;
40204;SDS011;26963;42.666;23.366;2023-03-19T06:11:49;16.57;;;11.93;;
40204;SDS011;26963;42.666;23.366;2023-03-19T06:14:14;15.23;;;10.60;;
40204;SDS011;26963;42.666;23.366;2023-03-19T06:16:40;16.87;;;9.87;;
40204;SDS011;26963;42.666;23.366;2023-03-19T06:19:05;16.20;;;10.13;;
40204;SDS011;26963;42.666;23.366;2023-03-19T06:21:31;16.02;;;9.82;;
40204;SDS011;26963;42.666;23.366;2023-03-19T06:23:57;15.43;;;9.57;;
40204;SDS011;26963;42.666;23.366;2023-03-19T06:26:23;13.90;;;9.93;;
40204;SDS011;26963;42.666;23.366;2023-03-19T06:28:49;14.80;;;9.35;;
40204;SDS011;26963;42.666;23.366;2023-03-19T06:31:14;13.90;;;8.73;;
40204;SDS011;26963;42.666;23.366;2023-03-19T06:33:40;14.70;;;9.10;;
40204;SDS011;26963;42.666;23.366;2023-03-19T06:36:06;14.40;;;9.13;;
40204;SDS011;26963;42.666;23.366;2023-03-19T06:38:32;14.90;;;9.67;;
40204;SDS011;26963;42.666;23.366;2023-03-19T06:40:59;11.60;;;8.53;;
40204;SDS011;26963;42.666;23.366;2023-03-19T06:43:24;15.07;;;9.82;;
40204;SDS011;26963;42.666;23.366;2023-03-19T06:45:50;14.35;;;9.85;;
40204;SDS011;26963;42.666;23.366;2023-03-19T06:48:16;14.88;;;9.70;;
40204;SDS011;26963;42.666;23.366;2023-03-19T06:50:44;15.68;;;9.88;;
40204;SDS011;26963;42.666;23.366;2023-03-19T06:53:10;13.95;;;9.43;;
40204;SDS011;26963;42.666;23.366;2023-03-19T06:55:36;12.93;;;8.40;;
40204;SDS011;26963;42.666;23.366;2023-03-19T06:58:02;15.75;;;8.98;;
40204;SDS011;26963;42.666;23.366;2023-03-19T07:00:28;13.10;;;9.63;;
40204;SDS011;26963;42.666;23.366;2023-03-19T07:02:53;13.30;;;9.18;;
40204;SDS011;26963;42.666;23.366;2023-03-19T07:05:19;13.32;;;9.40;;
40204;SDS011;26963;42.666;23.366;2023-03-19T07:07:45;14.15;;;9.35;;
40204;SDS011;26963;42.666;23.366;2023-03-19T07:10:10;12.30;;;9.20;;
40204;SDS011;26963;42.666;23.366;2023-03-19T07:12:36;12.35;;;9.52;;
40204;SDS011;26963;42.666;23.366;2023-03-19T07:15:01;12.50;;;9.50;;
40204;SDS011;26963;42.666;23.366;2023-03-19T07:17:28;12.25;;;9.70;;
40204;SDS011;26963;42.666;23.366;2023-03-19T07:19:54;13.50;;;9.82;;
40204;SDS011;26963;42.666;23.366;2023-03-19T07:22:20;12.98;;;8.93;;
40204;SDS011;26963;42.666;23.366;2023-03-19T07:24:46;14.10;;;9.93;;
40204;SDS011;26963;42.666;23.366;2023-03-19T07:27:11;13.27;;;9.20;;
40204;SDS011;26963;42.666;23.366;2023-03-19T07:29:37;13.63;;;10.27;;
40204;SDS011;26963;42.666;23.366;2023-03-19T07:32:02;12.65;;;9.73;;
40204;SDS011;26963;42.666;23.366;2023-03-19T07:34:28;11.40;;;9.00;;
40204;SDS011;26963;42.666;23.366;2023-03-19T07:36:53;12.23;;;9.73;;
40204;SDS011;26963;42.666;23.366;2023-03-19T07:39:19;12.38;;;9.40;;
40204;SDS011;26963;42.666;23.366;2023-03-19T07:41:45;12.00;;;8.57;;
40204;SDS011;26963;42.666;23.366;2023-03-19T07:44:16;12.68;;;9.15;;
40204;SDS011;26963;42.666;23.366;2023-03-19T07:46:42;11.48;;;9.60;;
40204;SDS011;26963;42.666;23.366;2023-03-19T07:49:08;11.15;;;8.70;;
40204;SDS011;26963;42.666;23.366;2023-03-19T07:51:33;12.68;;;9.52;;
40204;SDS011;26963;42.666;23.366;2023-03-19T07:53:59;13.18;;;9.10;;
40204;SDS011;26963;42.666;23.366;2023-03-19T07:56:25;11.27;;;9.80;;
40204;SDS011;26963;42.666;23.366;2023-03-19T07:58:51;16.27;;;13.43;;
40204;SDS011;26963;42.666;23.366;2023-03-19T08:01:17;11.55;;;9.05;;
40204;SDS011;26963;42.666;23.366;2023-03-19T08:03:42;12.05;;;9.35;;
40204;SDS011;26963;42.666;23.366;2023-03-19T08:06:08;10.50;;;8.85;;
40204;SDS011;26963;42.666;23.366;2023-03-19T08:08:34;10.82;;;8.23;;
40204;SDS011;26963;42.666;23.366;2023-03-19T08:11:00;12.27;;;8.05;;
40204;SDS011;26963;42.666;23.366;2023-03-19T08:13:26;14.32;;;10.48;;
40204;SDS011;26963;42.666;23.366;2023-03-19T08:15:52;13.43;;;10.63;;
40204;SDS011;26963;42.666;23.366;2023-03-19T08:18:18;15.68;;;12.20;;
40204;SDS011;26963;42.666;23.366;2023-03-19T08:20:44;16.48;;;12.98;;
40204;SDS011;26963;42.666;23.366;2023-03-19T08:23:11;14.38;;;10.68;;
40204;SDS011;26963;42.666;23.366;2023-03-19T08:25:37;13.73;;;10.20;;
40204;SDS011;26963;42.666;23.366;2023-03-19T08:28:03;12.30;;;10.32;;
40204;SDS011;26963;42.666;23.366;2023-03-19T08:30:29;13.30;;;10.35;;
40204;SDS011;26963;42.666;23.366;2023-03-19T08:32:54;14.65;;;11.20;;
40204;SDS011;26963;42.666;23.366;2023-03-19T08:35:20;13.23;;;10.63;;
40204;SDS011;26963;42.666;23.366;2023-03-19T08:37:46;14.00;;;11.45;;
40204;SDS011;26963;42.666;23.366;2023-03-19T08:40:12;12.98;;;10.60;;
40204;SDS011;26963;42.666;23.366;2023-03-19T08:42:38;13.98;;;10.00;;
40204;SDS011;26963;42.666;23.366;2023-03-19T08:45:06;13.85;;;11.02;;
40204;SDS011;26963;42.666;23.366;2023-03-19T08:47:35;13.00;;;10.48;;
40204;SDS011;26963;42.666;23.366;2023-03-19T08:50:01;15.82;;;10.32;;
40204;SDS011;26963;42.666;23.366;2023-03-19T08:52:28;11.15;;;9.32;;
40204;SDS011;26963;42.666;23.366;2023-03-19T08:54:53;13.35;;;9.80;;
40204;SDS011;26963;42.666;23.366;2023-03-19T08:57:19;11.38;;;9.15;;
40204;SDS011;26963;42.666;23.366;2023-03-19T08:59:45;10.50;;;8.77;;
40204;SDS011;26963;42.666;23.366;2023-03-19T09:02:11;12.85;;;9.50;;
40204;SDS011;26963;42.666;23.366;2023-03-19T09:04:40;11.00;;;8.80;;
40204;SDS011;26963;42.666;23.366;2023-03-19T09:07:07;14.57;;;9.20;;
40204;SDS011;26963;42.666;23.366;2023-03-19T09:09:32;10.90;;;8.50;;
40204;SDS011;26963;42.666;23.366;2023-03-19T09:11:58;10.55;;;8.80;;
40204;SDS011;26963;42.666;23.366;2023-03-19T09:14:24;15.15;;;8.95;;
40204;SDS011;26963;42.666;23.366;2023-03-19T09:16:49;11.40;;;8.07;;
40204;SDS011;26963;42.666;23.366;2023-03-19T09:19:15;10.93;;;8.13;;
40204;SDS011;26963;42.666;23.366;2023-03-19T09:21:41;12.23;;;8.40;;
40204;SDS011;26963;42.666;23.366;2023-03-19T09:24:06;11.07;;;8.07;;
40204;SDS011;26963;42.666;23.366;2023-03-19T09:26:33;12.27;;;7.93;;
40204;SDS011;26963;42.666;23.366;2023-03-19T09:28:58;10.57;;;8.00;;
40204;SDS011;26963;42.666;23.366;2023-03-19T09:31:24;10.63;;;7.65;;
40204;SDS011;26963;42.666;23.366;2023-03-19T09:33:50;9.93;;;7.30;;
40204;SDS011;26963;42.666;23.366;2023-03-19T09:36:16;12.82;;;8.90;;
40204;SDS011;26963;42.666;23.366;2023-03-19T09:38:41;9.98;;;7.78;;
40204;SDS011;26963;42.666;23.366;2023-03-19T09:43:56;11.02;;;8.77;;
40204;SDS011;26963;42.666;23.366;2023-03-19T09:46:32;11.35;;;8.20;;
40204;SDS011;26963;42.666;23.366;2023-03-19T09:49:13;11.50;;;8.52;;
40204;SDS011;26963;42.666;23.366;2023-03-19T09:54:55;10.57;;;8.15;;
40204;SDS011;26963;42.666;23.366;2023-03-19T09:57:23;11.98;;;8.38;;
40204;SDS011;26963;42.666;23.366;2023-03-19T09:59:48;12.10;;;8.55;;
40204;SDS011;26963;42.666;23.366;2023-03-19T10:04:48;11.93;;;9.15;;
40204;SDS011;26963;42.666;23.366;2023-03-19T10:07:24;12.93;;;8.32;;
40204;SDS011;26963;42.666;23.366;2023-03-19T10:10:28;10.65;;;8.35;;
40204;SDS011;26963;42.666;23.366;2023-03-19T10:13:10;11.07;;;7.63;;
40204;SDS011;26963;42.666;23.366;2023-03-19T10:15:40;11.43;;;7.70;;
40204;SDS011;26963;42.666;23.366;2023-03-19T10:20:51;10.05;;;7.90;;
40204;SDS011;26963;42.666;23.366;2023-03-19T10:26:03;11.70;;;7.65;;
40204;SDS011;26963;42.666;23.366;2023-03-19T10:28:32;10.23;;;8.52;;
40204;SDS011;26963;42.666;23.366;2023-03-19T10:39:31;12.57;;;9.75;;
40204;SDS011;26963;42.666;23.366;2023-03-19T10:44:39;11.50;;;8.30;;
40204;SDS011;26963;42.666;23.366;2023-03-19T10:47:13;12.48;;;8.05;;
40204;SDS011;26963;42.666;23.366;2023-03-19T10:49:40;9.77;;;7.82;;
40204;SDS011;26963;42.666;23.366;2023-03-19T10:57:27;9.93;;;7.60;;
40204;SDS011;26963;42.666;23.366;2023-03-19T10:59:55;10.23;;;7.30;;
40204;SDS011;26963;42.666;23.366;2023-03-19T11:02:28;13.75;;;7.30;;
40204;SDS011;26963;42.666;23.366;2023-03-19T11:07:56;12.50;;;6.43;;
40204;SDS011;26963;42.666;23.366;2023-03-19T11:10:30;10.40;;;7.07;;
40204;SDS011;26963;42.666;23.366;2023-03-19T11:13:03;8.65;;;6.32;;
40204;SDS011;26963;42.666;23.366;2023-03-19T11:15:35;9.85;;;7.20;;
40204;SDS011;26963;42.666;23.366;2023-03-19T11:18:07;12.40;;;6.80;;
40204;SDS011;26963;42.666;23.366;2023-03-19T11:20:42;10.23;;;7.70;;
40204;SDS011;26963;42.666;23.366;2023-03-19T11:23:15;12.40;;;8.93;;
40204;SDS011;26963;42.666;23.366;2023-03-19T11:25:45;10.95;;;7.80;;
40204;SDS011;26963;42.666;23.366;2023-03-19T11:28:25;8.95;;;6.45;;
40204;SDS011;26963;42.666;23.366;2023-03-19T11:36:41;11.35;;;7.07;;
40204;SDS011;26963;42.666;23.366;2023-03-19T11:44:17;9.43;;;6.13;;
40204;SDS011;26963;42.666;23.366;2023-03-19T11:46:52;10.88;;;6.13;;
40204;SDS011;26963;42.666;23.366;2023-03-19T11:52:11;8.85;;;5.78;;
40204;SDS011;26963;42.666;23.366;2023-03-19T11:55:45;9.88;;;5.93;;
40204;SDS011;26963;42.666;23.366;2023-03-19T12:00:26;11.48;;;6.43;;
40204;SDS011;26963;42.666;23.366;2023-03-19T12:11:23;10.05;;;6.18;;
40204;SDS011;26963;42.666;23.366;2023-03-19T12:13:58;9.48;;;5.55;;
40204;SDS011;26963;42.666;23.366;2023-03-19T12:16:37;10.15;;;5.35;;
40204;SDS011;26963;42.666;23.366;2023-03-19T12:22:24;10.93;;;6.28;;
40204;SDS011;26963;42.666;23.366;2023-03-19T12:28:25;9.63;;;5.60;;
40204;SDS011;26963;42.666;23.366;2023-03-19T12:36:13;6.60;;;5.05;;
40204;SDS011;26963;42.666;23.366;2023-03-19T12:38:48;11.27;;;5.30;;
40204;SDS011;26963;42.666;23.366;2023-03-19T12:41:25;10.50;;;6.32;;
40204;SDS011;26963;42.666;23.366;2023-03-19T12:44:07;7.65;;;5.32;;
40204;SDS011;26963;42.666;23.366;2023-03-19T12:46:48;8.23;;;5.07;;
40204;SDS011;26963;42.666;23.366;2023-03-19T12:51:45;9.02;;;5.38;;
40204;SDS011;26963;42.666;23.366;2023-03-19T13:07:53;8.63;;;4.90;;
40204;SDS011;26963;42.666;23.366;2023-03-19T13:10:36;8.60;;;5.30;;
40204;SDS011;26963;42.666;23.366;2023-03-19T13:13:05;11.00;;;6.05;;
40204;SDS011;26963;42.666;23.366;2023-03-19T13:15:53;9.32;;;6.88;;
40204;SDS011;26963;42.666;23.366;2023-03-19T13:21:11;8.93;;;4.38;;
40204;SDS011;26963;42.666;23.366;2023-03-19T13:23:57;7.93;;;5.43;;
40204;SDS011;26963;42.666;23.366;2023-03-19T13:26:24;7.78;;;4.93;;
40204;SDS011;26963;42.666;23.366;2023-03-19T13:31:34;8.05;;;5.13;;
40204;SDS011;26963;42.666;23.366;2023-03-19T13:34:03;7.05;;;4.53;;
40204;SDS011;26963;42.666;23.366;2023-03-19T13:36:34;7.00;;;4.10;;
40204;SDS011;26963;42.666;23.366;2023-03-19T13:39:16;9.35;;;4.35;;
40204;SDS011;26963;42.666;23.366;2023-03-19T13:41:49;6.47;;;4.20;;
40204;SDS011;26963;42.666;23.366;2023-03-19T13:52:40;8.90;;;4.93;;
40204;SDS011;26963;42.666;23.366;2023-03-19T13:55:31;8.10;;;4.78;;
40204;SDS011;26963;42.666;23.366;2023-03-19T13:57:59;7.95;;;4.45;;
40204;SDS011;26963;42.666;23.366;2023-03-19T14:01:02;5.68;;;3.58;;
40204;SDS011;26963;42.666;23.366;2023-03-19T14:03:32;7.50;;;4.43;;
40204;SDS011;26963;42.666;23.366;2023-03-19T14:06:01;7.68;;;3.92;;
40204;SDS011;26963;42.666;23.366;2023-03-19T14:08:28;8.30;;;3.95;;
40204;SDS011;26963;42.666;23.366;2023-03-19T14:11:06;5.60;;;3.70;;
40204;SDS011;26963;42.666;23.366;2023-03-19T14:13:33;5.97;;;3.22;;
40204;SDS011;26963;42.666;23.366;2023-03-19T14:16:04;9.80;;;6.05;;
40204;SDS011;26963;42.666;23.366;2023-03-19T14:18:32;8.23;;;6.07;;
40204;SDS011;26963;42.666;23.366;2023-03-19T14:21:04;9.60;;;6.47;;
40204;SDS011;26963;42.666;23.366;2023-03-19T14:23:33;11.35;;;7.57;;
40204;SDS011;26963;42.666;23.366;2023-03-19T14:26:02;8.18;;;5.30;;
40204;SDS011;26963;42.666;23.366;2023-03-19T14:28:56;7.82;;;3.83;;
40204;SDS011;26963;42.666;23.366;2023-03-19T14:31:30;6.22;;;3.30;;
40204;SDS011;26963;42.666;23.366;2023-03-19T14:36:28;6.43;;;2.60;;
40204;SDS011;26963;42.666;23.366;2023-03-19T14:39:02;5.78;;;3.00;;
40204;SDS011;26963;42.666;23.366;2023-03-19T14:55:49;7.30;;;2.95;;
40204;SDS011;26963;42.666;23.366;2023-03-19T14:58:17;5.32;;;3.45;;
40204;SDS011;26963;42.666;23.366;2023-03-19T15:00:52;8.18;;;3.58;;
40204;SDS011;26963;42.666;23.366;2023-03-19T15:06:00;4.70;;;2.88;;
40204;SDS011;26963;42.666;23.366;2023-03-19T15:08:29;6.13;;;3.63;;
40204;SDS011;26963;42.666;23.366;2023-03-19T15:18:59;6.50;;;4.07;;
40204;SDS011;26963;42.666;23.366;2023-03-19T15:21:25;7.95;;;3.50;;
40204;SDS011;26963;42.666;23.366;2023-03-19T15:23:53;7.53;;;3.85;;
40204;SDS011;26963;42.666;23.366;2023-03-19T15:26:29;6.93;;;4.38;;
40204;SDS011;26963;42.666;23.366;2023-03-19T15:28:56;6.97;;;3.40;;
40204;SDS011;26963;42.666;23.366;2023-03-19T15:31:22;5.95;;;3.15;;
40204;SDS011;26963;42.666;23.366;2023-03-19T15:33:48;6.32;;;3.00;;
40204;SDS011;26963;42.666;23.366;2023-03-19T15:41:21;4.15;;;2.80;;
40204;SDS011;26963;42.666;23.366;2023-03-19T15:43:49;6.57;;;3.00;;
40204;SDS011;26963;42.666;23.366;2023-03-19T15:46:17;4.90;;;3.28;;
40204;SDS011;26963;42.666;23.366;2023-03-19T15:51:23;4.90;;;2.95;;
40204;SDS011;26963;42.666;23.366;2023-03-19T15:53:51;4.78;;;3.38;;
40204;SDS011;26963;42.666;23.366;2023-03-19T15:56:17;6.63;;;3.45;;
40204;SDS011;26963;42.666;23.366;2023-03-19T15:58:45;9.18;;;4.30;;
40204;SDS011;26963;42.666;23.366;2023-03-19T16:01:14;8.98;;;4.68;;
40204;SDS011;26963;42.666;23.366;2023-03-19T16:04:02;7.95;;;3.50;;
40204;SDS011;26963;42.666;23.366;2023-03-19T16:06:34;6.68;;;3.72;;
40204;SDS011;26963;42.666;23.366;2023-03-19T16:09:37;10.05;;;3.30;;
40204;SDS011;26963;42.666;23.366;2023-03-19T16:12:01;6.32;;;3.58;;
40204;SDS011;26963;42.666;23.366;2023-03-19T16:14:40;9.32;;;4.72;;
40204;SDS011;26963;42.666;23.366;2023-03-19T16:17:16;5.43;;;3.40;;
40204;SDS011;26963;42.666;23.366;2023-03-19T16:19:52;8.40;;;3.45;;
40204;SDS011;26963;42.666;23.366;2023-03-19T16:22:24;6.60;;;3.80;;
40204;SDS011;26963;42.666;23.366;2023-03-19T16:24:55;5.95;;;3.38;;
40204;SDS011;26963;42.666;23.366;2023-03-19T16:27:29;6.25;;;3.38;;
40204;SDS011;26963;42.666;23.366;2023-03-19T16:29:58;6.03;;;3.50;;
40204;SDS011;26963;42.666;23.366;2023-03-19T16:32:25;7.38;;;3.78;;
40204;SDS011;26963;42.666;23.366;2023-03-19T16:37:41;13.45;;;7.50;;
40204;SDS011;26963;42.666;23.366;2023-03-19T16:42:37;12.75;;;7.82;;
40204;SDS011;26963;42.666;23.366;2023-03-19T16:50:16;17.88;;;9.93;;
40204;SDS011;26963;42.666;23.366;2023-03-19T16:52:43;17.52;;;9.82;;
40204;SDS011;26963;42.666;23.366;2023-03-19T16:55:15;15.35;;;10.02;;
40204;SDS011;26963;42.666;23.366;2023-03-19T16:57:56;17.75;;;10.93;;